sensor_id;sensor_type;location;lat;lon;timestamp;P1;durP1;ratioP1;P2;durP2;ratioP2
67556;SDS011;54387;53.526;49.300;2022-10-13T00:00:29;28.15;;;7.50;;
67556;SDS011;54387;53.526;49.300;2022-10-13T00:03:01;18.52;;;6.47;;
67556;SDS011;54387;53.526;49.300;2022-10-13T00:05:33;10.80;;;5.10;;
67556;SDS011;54387;53.526;49.300;2022-10-13T00:08:05;13.88;;;5.97;;
67556;SDS011;54387;53.526;49.300;2022-10-13T00:10:37;13.65;;;5.53;;
67556;SDS011;54387;53.526;49.300;2022-10-13T00:13:09;12.07;;;4.40;;
67556;SDS011;54387;53.526;49.300;2022-10-13T00:15:42;8.02;;;4.30;;
67556;SDS011;54387;53.526;49.300;2022-10-13T00:20:47;7.68;;;4.03;;
67556;SDS011;54387;53.526;49.300;2022-10-13T00:23:19;6.88;;;4.40;;
67556;SDS011;54387;53.526;49.300;2022-10-13T00:25:51;9.55;;;4.38;;
67556;SDS011;54387;53.526;49.300;2022-10-13T00:28:23;9.68;;;4.85;;
67556;SDS011;54387;53.526;49.300;2022-10-13T00:30:54;8.15;;;4.10;;
67556;SDS011;54387;53.526;49.300;2022-10-13T00:33:26;7.10;;;4.40;;
67556;SDS011;54387;53.526;49.300;2022-10-13T00:35:57;6.85;;;4.43;;
67556;SDS011;54387;53.526;49.300;2022-10-13T00:38:29;10.75;;;4.55;;
67556;SDS011;54387;53.526;49.300;2022-10-13T00:41:00;9.40;;;4.82;;
67556;SDS011;54387;53.526;49.300;2022-10-13T00:43:48;12.73;;;6.20;;
67556;SDS011;54387;53.526;49.300;2022-10-13T00:46:29;9.63;;;5.38;;
67556;SDS011;54387;53.526;49.300;2022-10-13T00:49:10;9.07;;;5.50;;
67556;SDS011;54387;53.526;49.300;2022-10-13T00:51:45;12.32;;;5.35;;
67556;SDS011;54387;53.526;49.300;2022-10-13T00:54:19;10.10;;;4.82;;
67556;SDS011;54387;53.526;49.300;2022-10-13T00:56:54;8.70;;;4.90;;
67556;SDS011;54387;53.526;49.300;2022-10-13T00:59:26;12.38;;;5.93;;
67556;SDS011;54387;53.526;49.300;2022-10-13T01:01:58;11.48;;;6.18;;
67556;SDS011;54387;53.526;49.300;2022-10-13T01:04:33;10.63;;;6.20;;
67556;SDS011;54387;53.526;49.300;2022-10-13T01:07:09;9.85;;;6.15;;
67556;SDS011;54387;53.526;49.300;2022-10-13T01:09:42;14.23;;;6.45;;
67556;SDS011;54387;53.526;49.300;2022-10-13T01:15:06;12.80;;;7.20;;
67556;SDS011;54387;53.526;49.300;2022-10-13T01:20:36;10.63;;;7.00;;
67556;SDS011;54387;53.526;49.300;2022-10-13T01:32:09;13.77;;;9.32;;
67556;SDS011;54387;53.526;49.300;2022-10-13T01:35:41;17.35;;;9.55;;
67556;SDS011;54387;53.526;49.300;2022-10-13T01:43:36;17.13;;;8.10;;
67556;SDS011;54387;53.526;49.300;2022-10-13T01:46:14;16.92;;;8.80;;
67556;SDS011;54387;53.526;49.300;2022-10-13T01:48:53;16.45;;;8.30;;
67556;SDS011;54387;53.526;49.300;2022-10-13T01:51:28;17.33;;;8.80;;
67556;SDS011;54387;53.526;49.300;2022-10-13T01:54:01;10.93;;;6.65;;
67556;SDS011;54387;53.526;49.300;2022-10-13T01:56:32;12.32;;;6.97;;
67556;SDS011;54387;53.526;49.300;2022-10-13T01:59:05;15.15;;;6.30;;
67556;SDS011;54387;53.526;49.300;2022-10-13T02:01:54;13.25;;;6.60;;
67556;SDS011;54387;53.526;49.300;2022-10-13T02:04:50;8.07;;;5.82;;
67556;SDS011;54387;53.526;49.300;2022-10-13T02:07:32;12.38;;;6.38;;
67556;SDS011;54387;53.526;49.300;2022-10-13T02:10:19;12.02;;;6.10;;
67556;SDS011;54387;53.526;49.300;2022-10-13T02:13:11;8.77;;;5.13;;
67556;SDS011;54387;53.526;49.300;2022-10-13T02:15:46;11.27;;;5.43;;
67556;SDS011;54387;53.526;49.300;2022-10-13T02:18:27;7.03;;;5.00;;
67556;SDS011;54387;53.526;49.300;2022-10-13T02:21:02;12.60;;;5.70;;
67556;SDS011;54387;53.526;49.300;2022-10-13T02:23:34;15.55;;;9.02;;
67556;SDS011;54387;53.526;49.300;2022-10-13T02:26:06;13.88;;;10.15;;
67556;SDS011;54387;53.526;49.300;2022-10-13T02:28:37;15.88;;;9.52;;
67556;SDS011;54387;53.526;49.300;2022-10-13T02:31:09;9.75;;;7.32;;
67556;SDS011;54387;53.526;49.300;2022-10-13T02:33:40;10.50;;;6.53;;
67556;SDS011;54387;53.526;49.300;2022-10-13T02:36:12;7.15;;;3.95;;
67556;SDS011;54387;53.526;49.300;2022-10-13T02:38:43;8.75;;;4.60;;
67556;SDS011;54387;53.526;49.300;2022-10-13T02:41:15;6.82;;;4.57;;
67556;SDS011;54387;53.526;49.300;2022-10-13T02:43:46;8.10;;;4.53;;
67556;SDS011;54387;53.526;49.300;2022-10-13T02:46:18;7.70;;;4.57;;
67556;SDS011;54387;53.526;49.300;2022-10-13T02:48:49;10.48;;;5.63;;
67556;SDS011;54387;53.526;49.300;2022-10-13T02:51:21;15.52;;;5.85;;
67556;SDS011;54387;53.526;49.300;2022-10-13T02:53:52;10.50;;;5.57;;
67556;SDS011;54387;53.526;49.300;2022-10-13T02:56:24;10.35;;;5.53;;
67556;SDS011;54387;53.526;49.300;2022-10-13T02:58:55;11.40;;;5.70;;
67556;SDS011;54387;53.526;49.300;2022-10-13T03:01:27;11.30;;;6.13;;
67556;SDS011;54387;53.526;49.300;2022-10-13T03:03:58;13.98;;;6.70;;
67556;SDS011;54387;53.526;49.300;2022-10-13T03:06:30;11.95;;;6.30;;
67556;SDS011;54387;53.526;49.300;2022-10-13T03:09:02;9.93;;;5.38;;
67556;SDS011;54387;53.526;49.300;2022-10-13T03:11:33;10.70;;;6.13;;
67556;SDS011;54387;53.526;49.300;2022-10-13T03:14:05;10.07;;;5.72;;
67556;SDS011;54387;53.526;49.300;2022-10-13T03:16:36;13.82;;;6.32;;
67556;SDS011;54387;53.526;49.300;2022-10-13T03:19:08;8.70;;;5.78;;
67556;SDS011;54387;53.526;49.300;2022-10-13T03:21:40;12.25;;;6.25;;
67556;SDS011;54387;53.526;49.300;2022-10-13T03:24:11;14.60;;;6.72;;
67556;SDS011;54387;53.526;49.300;2022-10-13T03:26:43;9.00;;;6.07;;
67556;SDS011;54387;53.526;49.300;2022-10-13T03:29:15;11.18;;;5.85;;
67556;SDS011;54387;53.526;49.300;2022-10-13T03:31:47;10.23;;;5.88;;
67556;SDS011;54387;53.526;49.300;2022-10-13T03:34:19;14.05;;;7.18;;
67556;SDS011;54387;53.526;49.300;2022-10-13T03:36:50;11.85;;;7.15;;
67556;SDS011;54387;53.526;49.300;2022-10-13T03:39:22;18.17;;;10.82;;
67556;SDS011;54387;53.526;49.300;2022-10-13T03:41:53;20.05;;;8.48;;
67556;SDS011;54387;53.526;49.300;2022-10-13T03:44:25;11.48;;;7.28;;
67556;SDS011;54387;53.526;49.300;2022-10-13T03:46:57;13.00;;;7.20;;
67556;SDS011;54387;53.526;49.300;2022-10-13T03:49:28;16.23;;;7.63;;
67556;SDS011;54387;53.526;49.300;2022-10-13T03:52:00;14.32;;;7.43;;
67556;SDS011;54387;53.526;49.300;2022-10-13T03:54:31;13.00;;;6.07;;
67556;SDS011;54387;53.526;49.300;2022-10-13T03:57:03;13.88;;;7.38;;
67556;SDS011;54387;53.526;49.300;2022-10-13T03:59:34;11.98;;;6.43;;
67556;SDS011;54387;53.526;49.300;2022-10-13T04:02:06;12.27;;;6.32;;
67556;SDS011;54387;53.526;49.300;2022-10-13T04:04:38;9.95;;;6.57;;
67556;SDS011;54387;53.526;49.300;2022-10-13T04:07:09;14.50;;;7.18;;
67556;SDS011;54387;53.526;49.300;2022-10-13T04:09:41;10.88;;;7.57;;
67556;SDS011;54387;53.526;49.300;2022-10-13T04:12:12;15.13;;;7.97;;
67556;SDS011;54387;53.526;49.300;2022-10-13T04:14:44;17.38;;;9.43;;
67556;SDS011;54387;53.526;49.300;2022-10-13T04:17:15;12.82;;;8.85;;
67556;SDS011;54387;53.526;49.300;2022-10-13T04:19:47;13.23;;;8.30;;
67556;SDS011;54387;53.526;49.300;2022-10-13T04:22:18;13.98;;;8.13;;
67556;SDS011;54387;53.526;49.300;2022-10-13T04:24:50;14.57;;;8.20;;
67556;SDS011;54387;53.526;49.300;2022-10-13T04:27:21;15.85;;;8.90;;
67556;SDS011;54387;53.526;49.300;2022-10-13T04:29:53;15.48;;;8.65;;
67556;SDS011;54387;53.526;49.300;2022-10-13T04:32:25;16.98;;;8.50;;
67556;SDS011;54387;53.526;49.300;2022-10-13T04:34:57;14.35;;;8.80;;
67556;SDS011;54387;53.526;49.300;2022-10-13T04:37:28;17.33;;;9.68;;
67556;SDS011;54387;53.526;49.300;2022-10-13T04:40:00;15.40;;;9.00;;
67556;SDS011;54387;53.526;49.300;2022-10-13T04:42:32;16.85;;;8.98;;
67556;SDS011;54387;53.526;49.300;2022-10-13T04:45:04;16.38;;;9.00;;
67556;SDS011;54387;53.526;49.300;2022-10-13T04:47:36;14.05;;;8.73;;
67556;SDS011;54387;53.526;49.300;2022-10-13T04:50:09;17.80;;;8.25;;
67556;SDS011;54387;53.526;49.300;2022-10-13T04:52:40;13.63;;;7.88;;
67556;SDS011;54387;53.526;49.300;2022-10-13T04:55:12;14.27;;;8.88;;
67556;SDS011;54387;53.526;49.300;2022-10-13T04:57:44;14.95;;;7.82;;
67556;SDS011;54387;53.526;49.300;2022-10-13T05:00:15;17.30;;;8.10;;
67556;SDS011;54387;53.526;49.300;2022-10-13T05:02:47;13.98;;;7.15;;
67556;SDS011;54387;53.526;49.300;2022-10-13T05:05:18;17.25;;;7.55;;
67556;SDS011;54387;53.526;49.300;2022-10-13T05:07:50;12.65;;;7.05;;
67556;SDS011;54387;53.526;49.300;2022-10-13T05:10:21;15.65;;;6.90;;
67556;SDS011;54387;53.526;49.300;2022-10-13T05:12:53;13.38;;;7.22;;
67556;SDS011;54387;53.526;49.300;2022-10-13T05:15:24;13.27;;;6.82;;
67556;SDS011;54387;53.526;49.300;2022-10-13T05:17:57;8.48;;;5.50;;
67556;SDS011;54387;53.526;49.300;2022-10-13T05:20:29;14.83;;;6.57;;
67556;SDS011;54387;53.526;49.300;2022-10-13T05:23:01;13.75;;;7.13;;
67556;SDS011;54387;53.526;49.300;2022-10-13T05:25:34;12.27;;;6.32;;
67556;SDS011;54387;53.526;49.300;2022-10-13T05:28:07;19.92;;;7.90;;
67556;SDS011;54387;53.526;49.300;2022-10-13T05:30:39;10.07;;;6.30;;
67556;SDS011;54387;53.526;49.300;2022-10-13T05:33:10;13.40;;;7.18;;
67556;SDS011;54387;53.526;49.300;2022-10-13T05:35:42;14.20;;;7.13;;
67556;SDS011;54387;53.526;49.300;2022-10-13T05:38:13;15.70;;;7.35;;
67556;SDS011;54387;53.526;49.300;2022-10-13T05:40:45;12.05;;;6.50;;
67556;SDS011;54387;53.526;49.300;2022-10-13T05:43:16;14.57;;;7.20;;
67556;SDS011;54387;53.526;49.300;2022-10-13T05:45:48;11.05;;;6.57;;
67556;SDS011;54387;53.526;49.300;2022-10-13T05:48:19;11.30;;;6.30;;
67556;SDS011;54387;53.526;49.300;2022-10-13T05:50:51;14.95;;;7.20;;
67556;SDS011;54387;53.526;49.300;2022-10-13T05:53:24;18.00;;;7.80;;
67556;SDS011;54387;53.526;49.300;2022-10-13T05:56:00;18.52;;;8.73;;
67556;SDS011;54387;53.526;49.300;2022-10-13T05:58:41;13.68;;;8.82;;
67556;SDS011;54387;53.526;49.300;2022-10-13T06:01:20;14.38;;;8.98;;
67556;SDS011;54387;53.526;49.300;2022-10-13T06:03:54;19.98;;;10.18;;
67556;SDS011;54387;53.526;49.300;2022-10-13T06:06:31;18.98;;;9.77;;
67556;SDS011;54387;53.526;49.300;2022-10-13T06:09:03;16.98;;;9.65;;
67556;SDS011;54387;53.526;49.300;2022-10-13T06:11:35;18.83;;;9.75;;
67556;SDS011;54387;53.526;49.300;2022-10-13T06:14:06;16.92;;;9.38;;
67556;SDS011;54387;53.526;49.300;2022-10-13T06:16:38;13.35;;;9.45;;
67556;SDS011;54387;53.526;49.300;2022-10-13T06:19:10;14.60;;;8.57;;
67556;SDS011;54387;53.526;49.300;2022-10-13T06:21:42;17.83;;;9.02;;
67556;SDS011;54387;53.526;49.300;2022-10-13T06:24:13;15.40;;;8.85;;
67556;SDS011;54387;53.526;49.300;2022-10-13T06:26:45;15.70;;;8.13;;
67556;SDS011;54387;53.526;49.300;2022-10-13T06:29:16;13.23;;;8.23;;
67556;SDS011;54387;53.526;49.300;2022-10-13T06:31:48;14.43;;;8.70;;
67556;SDS011;54387;53.526;49.300;2022-10-13T06:34:19;14.93;;;8.10;;
67556;SDS011;54387;53.526;49.300;2022-10-13T06:36:51;13.52;;;7.57;;
67556;SDS011;54387;53.526;49.300;2022-10-13T06:39:23;18.92;;;7.38;;
67556;SDS011;54387;53.526;49.300;2022-10-13T06:41:54;13.23;;;7.10;;
67556;SDS011;54387;53.526;49.300;2022-10-13T06:44:26;11.70;;;7.80;;
67556;SDS011;54387;53.526;49.300;2022-10-13T06:46:58;11.55;;;7.68;;
67556;SDS011;54387;53.526;49.300;2022-10-13T06:49:30;17.90;;;8.90;;
67556;SDS011;54387;53.526;49.300;2022-10-13T06:52:02;12.38;;;7.18;;
67556;SDS011;54387;53.526;49.300;2022-10-13T06:54:34;14.23;;;8.10;;
67556;SDS011;54387;53.526;49.300;2022-10-13T06:57:06;17.48;;;8.27;;
67556;SDS011;54387;53.526;49.300;2022-10-13T06:59:37;13.73;;;7.75;;
67556;SDS011;54387;53.526;49.300;2022-10-13T07:02:09;12.27;;;6.40;;
67556;SDS011;54387;53.526;49.300;2022-10-13T07:04:41;10.70;;;6.40;;
67556;SDS011;54387;53.526;49.300;2022-10-13T07:07:13;9.13;;;6.28;;
67556;SDS011;54387;53.526;49.300;2022-10-13T07:09:45;12.60;;;6.30;;
67556;SDS011;54387;53.526;49.300;2022-10-13T07:12:17;12.23;;;5.90;;
67556;SDS011;54387;53.526;49.300;2022-10-13T07:14:49;12.75;;;6.03;;
67556;SDS011;54387;53.526;49.300;2022-10-13T07:17:20;15.07;;;7.03;;
67556;SDS011;54387;53.526;49.300;2022-10-13T07:19:52;13.35;;;8.02;;
67556;SDS011;54387;53.526;49.300;2022-10-13T07:22:23;14.60;;;7.35;;
67556;SDS011;54387;53.526;49.300;2022-10-13T07:24:55;18.10;;;8.43;;
67556;SDS011;54387;53.526;49.300;2022-10-13T07:27:26;16.85;;;9.25;;
67556;SDS011;54387;53.526;49.300;2022-10-13T07:29:58;17.70;;;10.20;;
67556;SDS011;54387;53.526;49.300;2022-10-13T07:32:30;16.48;;;9.18;;
67556;SDS011;54387;53.526;49.300;2022-10-13T07:35:02;16.98;;;9.65;;
67556;SDS011;54387;53.526;49.300;2022-10-13T07:37:34;17.70;;;9.23;;
67556;SDS011;54387;53.526;49.300;2022-10-13T07:40:06;18.08;;;8.95;;
67556;SDS011;54387;53.526;49.300;2022-10-13T07:42:38;17.52;;;7.65;;
67556;SDS011;54387;53.526;49.300;2022-10-13T07:45:10;14.77;;;6.47;;
67556;SDS011;54387;53.526;49.300;2022-10-13T07:47:41;12.23;;;6.90;;
67556;SDS011;54387;53.526;49.300;2022-10-13T07:50:13;13.48;;;7.85;;
67556;SDS011;54387;53.526;49.300;2022-10-13T07:52:45;16.30;;;9.40;;
67556;SDS011;54387;53.526;49.300;2022-10-13T07:55:16;15.05;;;8.95;;
67556;SDS011;54387;53.526;49.300;2022-10-13T07:57:48;18.10;;;8.65;;
67556;SDS011;54387;53.526;49.300;2022-10-13T08:00:19;18.13;;;9.30;;
67556;SDS011;54387;53.526;49.300;2022-10-13T08:02:51;18.52;;;8.60;;
67556;SDS011;54387;53.526;49.300;2022-10-13T08:05:22;14.45;;;7.93;;
67556;SDS011;54387;53.526;49.300;2022-10-13T08:07:54;16.38;;;8.50;;
67556;SDS011;54387;53.526;49.300;2022-10-13T08:10:26;14.63;;;8.48;;
67556;SDS011;54387;53.526;49.300;2022-10-13T08:12:58;15.27;;;7.45;;
67556;SDS011;54387;53.526;49.300;2022-10-13T08:15:30;11.75;;;7.10;;
67556;SDS011;54387;53.526;49.300;2022-10-13T08:18:02;10.40;;;5.97;;
67556;SDS011;54387;53.526;49.300;2022-10-13T08:20:33;10.50;;;6.03;;
67556;SDS011;54387;53.526;49.300;2022-10-13T08:23:05;10.98;;;5.85;;
67556;SDS011;54387;53.526;49.300;2022-10-13T08:25:37;13.00;;;5.60;;
67556;SDS011;54387;53.526;49.300;2022-10-13T08:28:17;11.27;;;5.30;;
67556;SDS011;54387;53.526;49.300;2022-10-13T08:30:58;9.90;;;4.38;;
67556;SDS011;54387;53.526;49.300;2022-10-13T08:33:30;8.57;;;5.55;;
67556;SDS011;54387;53.526;49.300;2022-10-13T08:36:02;8.50;;;4.65;;
67556;SDS011;54387;53.526;49.300;2022-10-13T08:38:34;9.07;;;5.43;;
67556;SDS011;54387;53.526;49.300;2022-10-13T08:41:19;8.85;;;5.10;;
67556;SDS011;54387;53.526;49.300;2022-10-13T08:44:05;11.43;;;5.00;;
67556;SDS011;54387;53.526;49.300;2022-10-13T08:47:04;9.57;;;4.90;;
67556;SDS011;54387;53.526;49.300;2022-10-13T08:49:42;7.60;;;4.47;;
67556;SDS011;54387;53.526;49.300;2022-10-13T08:52:17;8.43;;;4.32;;
67556;SDS011;54387;53.526;49.300;2022-10-13T08:54:52;7.68;;;4.15;;
67556;SDS011;54387;53.526;49.300;2022-10-13T08:57:25;6.35;;;4.00;;
67556;SDS011;54387;53.526;49.300;2022-10-13T08:59:56;7.93;;;4.40;;
67556;SDS011;54387;53.526;49.300;2022-10-13T09:02:29;8.57;;;4.40;;
67556;SDS011;54387;53.526;49.300;2022-10-13T09:05:01;8.97;;;4.33;;
67556;SDS011;54387;53.526;49.300;2022-10-13T09:07:35;7.43;;;4.57;;
67556;SDS011;54387;53.526;49.300;2022-10-13T09:10:07;5.57;;;3.60;;
67556;SDS011;54387;53.526;49.300;2022-10-13T09:12:40;7.82;;;4.20;;
67556;SDS011;54387;53.526;49.300;2022-10-13T09:15:11;6.03;;;3.88;;
67556;SDS011;54387;53.526;49.300;2022-10-13T09:17:43;6.68;;;4.13;;
67556;SDS011;54387;53.526;49.300;2022-10-13T09:20:18;5.45;;;3.78;;
67556;SDS011;54387;53.526;49.300;2022-10-13T09:23:06;7.07;;;3.78;;
67556;SDS011;54387;53.526;49.300;2022-10-13T09:25:51;5.95;;;3.78;;
67556;SDS011;54387;53.526;49.300;2022-10-13T09:28:29;5.97;;;3.92;;
67556;SDS011;54387;53.526;49.300;2022-10-13T09:33:35;5.93;;;4.15;;
67556;SDS011;54387;53.526;49.300;2022-10-13T09:38:43;6.65;;;3.78;;
67556;SDS011;54387;53.526;49.300;2022-10-13T09:41:34;6.38;;;3.80;;
67556;SDS011;54387;53.526;49.300;2022-10-13T09:44:11;5.22;;;3.22;;
67556;SDS011;54387;53.526;49.300;2022-10-13T09:46:50;7.65;;;3.08;;
67556;SDS011;54387;53.526;49.300;2022-10-13T09:49:29;7.00;;;3.80;;
67556;SDS011;54387;53.526;49.300;2022-10-13T10:03:04;23.77;;;11.43;;
67556;SDS011;54387;53.526;49.300;2022-10-13T10:05:56;7.13;;;3.80;;
67556;SDS011;54387;53.526;49.300;2022-10-13T10:08:56;6.45;;;3.80;;
67556;SDS011;54387;53.526;49.300;2022-10-13T10:11:41;6.22;;;4.25;;
67556;SDS011;54387;53.526;49.300;2022-10-13T10:14:24;5.07;;;3.35;;
67556;SDS011;54387;53.526;49.300;2022-10-13T10:19:57;5.88;;;3.83;;
67556;SDS011;54387;53.526;49.300;2022-10-13T10:25:48;6.55;;;3.97;;
67556;SDS011;54387;53.526;49.300;2022-10-13T10:31:29;5.15;;;3.65;;
67556;SDS011;54387;53.526;49.300;2022-10-13T10:44:54;10.02;;;4.45;;
67556;SDS011;54387;53.526;49.300;2022-10-13T10:47:27;7.95;;;4.60;;
67556;SDS011;54387;53.526;49.300;2022-10-13T10:50:07;8.95;;;4.70;;
67556;SDS011;54387;53.526;49.300;2022-10-13T10:55:42;11.52;;;5.10;;
67556;SDS011;54387;53.526;49.300;2022-10-13T11:06:55;6.68;;;4.03;;
67556;SDS011;54387;53.526;49.300;2022-10-13T11:17:33;9.18;;;5.32;;
67556;SDS011;54387;53.526;49.300;2022-10-13T11:33:56;14.10;;;6.93;;
67556;SDS011;54387;53.526;49.300;2022-10-13T11:36:30;15.63;;;7.43;;
67556;SDS011;54387;53.526;49.300;2022-10-13T11:50:25;15.18;;;7.93;;
67556;SDS011;54387;53.526;49.300;2022-10-13T11:53:16;13.88;;;7.35;;
67556;SDS011;54387;53.526;49.300;2022-10-13T11:55:53;14.77;;;7.75;;
67556;SDS011;54387;53.526;49.300;2022-10-13T12:01:03;12.75;;;7.78;;
67556;SDS011;54387;53.526;49.300;2022-10-13T12:03:38;13.43;;;7.32;;
67556;SDS011;54387;53.526;49.300;2022-10-13T12:06:24;13.65;;;7.43;;
67556;SDS011;54387;53.526;49.300;2022-10-13T12:09:16;14.17;;;8.00;;
67556;SDS011;54387;53.526;49.300;2022-10-13T12:14:52;12.35;;;7.55;;
67556;SDS011;54387;53.526;49.300;2022-10-13T12:19:59;12.32;;;7.40;;
67556;SDS011;54387;53.526;49.300;2022-10-13T12:25:04;12.98;;;7.07;;
67556;SDS011;54387;53.526;49.300;2022-10-13T12:27:56;13.20;;;7.95;;
67556;SDS011;54387;53.526;49.300;2022-10-13T12:30:30;13.38;;;7.60;;
67556;SDS011;54387;53.526;49.300;2022-10-13T12:33:18;12.13;;;7.35;;
67556;SDS011;54387;53.526;49.300;2022-10-13T12:35:54;14.85;;;8.07;;
67556;SDS011;54387;53.526;49.300;2022-10-13T12:38:26;13.30;;;8.07;;
67556;SDS011;54387;53.526;49.300;2022-10-13T12:40:57;14.57;;;7.28;;
67556;SDS011;54387;53.526;49.300;2022-10-13T12:43:29;17.88;;;8.75;;
67556;SDS011;54387;53.526;49.300;2022-10-13T12:46:01;16.85;;;8.05;;
67556;SDS011;54387;53.526;49.300;2022-10-13T12:48:33;14.68;;;7.47;;
67556;SDS011;54387;53.526;49.300;2022-10-13T12:51:20;11.43;;;6.53;;
67556;SDS011;54387;53.526;49.300;2022-10-13T12:53:56;13.65;;;6.75;;
67556;SDS011;54387;53.526;49.300;2022-10-13T12:56:28;12.27;;;6.93;;
67556;SDS011;54387;53.526;49.300;2022-10-13T12:59:01;12.20;;;6.57;;
67556;SDS011;54387;53.526;49.300;2022-10-13T13:01:34;12.10;;;7.47;;
67556;SDS011;54387;53.526;49.300;2022-10-13T13:06:53;16.60;;;8.88;;
67556;SDS011;54387;53.526;49.300;2022-10-13T13:09:33;15.82;;;8.68;;
67556;SDS011;54387;53.526;49.300;2022-10-13T13:14:43;17.17;;;8.38;;
67556;SDS011;54387;53.526;49.300;2022-10-13T13:17:22;21.27;;;8.82;;
67556;SDS011;54387;53.526;49.300;2022-10-13T13:19:56;17.45;;;8.73;;
67556;SDS011;54387;53.526;49.300;2022-10-13T13:22:29;19.88;;;9.35;;
67556;SDS011;54387;53.526;49.300;2022-10-13T13:25:00;21.10;;;9.48;;
67556;SDS011;54387;53.526;49.300;2022-10-13T13:27:33;20.50;;;9.13;;
67556;SDS011;54387;53.526;49.300;2022-10-13T13:30:12;17.77;;;7.63;;
67556;SDS011;54387;53.526;49.300;2022-10-13T13:32:46;16.65;;;7.90;;
67556;SDS011;54387;53.526;49.300;2022-10-13T13:35:18;17.40;;;8.57;;
67556;SDS011;54387;53.526;49.300;2022-10-13T13:37:50;20.48;;;8.90;;
67556;SDS011;54387;53.526;49.300;2022-10-13T13:40:23;20.25;;;9.52;;
67556;SDS011;54387;53.526;49.300;2022-10-13T13:45:28;18.88;;;8.25;;
67556;SDS011;54387;53.526;49.300;2022-10-13T13:48:01;17.13;;;7.38;;
67556;SDS011;54387;53.526;49.300;2022-10-13T13:50:34;15.68;;;7.60;;
67556;SDS011;54387;53.526;49.300;2022-10-13T13:53:06;9.88;;;5.38;;
67556;SDS011;54387;53.526;49.300;2022-10-13T13:55:44;9.98;;;5.30;;
67556;SDS011;54387;53.526;49.300;2022-10-13T13:58:17;12.87;;;5.60;;
67556;SDS011;54387;53.526;49.300;2022-10-13T14:00:48;9.73;;;5.03;;
67556;SDS011;54387;53.526;49.300;2022-10-13T14:03:20;9.23;;;5.82;;
67556;SDS011;54387;53.526;49.300;2022-10-13T14:05:51;10.50;;;6.43;;
67556;SDS011;54387;53.526;49.300;2022-10-13T14:08:24;21.25;;;8.77;;
67556;SDS011;54387;53.526;49.300;2022-10-13T14:10:57;11.93;;;6.85;;
67556;SDS011;54387;53.526;49.300;2022-10-13T14:13:29;18.17;;;8.30;;
67556;SDS011;54387;53.526;49.300;2022-10-13T14:16:01;17.05;;;7.60;;
67556;SDS011;54387;53.526;49.300;2022-10-13T14:18:33;14.77;;;6.78;;
67556;SDS011;54387;53.526;49.300;2022-10-13T14:21:05;12.63;;;6.25;;
67556;SDS011;54387;53.526;49.300;2022-10-13T14:23:37;10.77;;;6.13;;
67556;SDS011;54387;53.526;49.300;2022-10-13T14:26:09;11.68;;;5.68;;
67556;SDS011;54387;53.526;49.300;2022-10-13T14:28:44;12.57;;;6.43;;
67556;SDS011;54387;53.526;49.300;2022-10-13T14:31:15;15.55;;;6.03;;
67556;SDS011;54387;53.526;49.300;2022-10-13T14:33:47;17.80;;;7.80;;
67556;SDS011;54387;53.526;49.300;2022-10-13T14:36:20;16.15;;;7.93;;
67556;SDS011;54387;53.526;49.300;2022-10-13T14:38:51;20.90;;;9.60;;
67556;SDS011;54387;53.526;49.300;2022-10-13T14:41:24;22.45;;;10.57;;
67556;SDS011;54387;53.526;49.300;2022-10-13T14:43:56;25.65;;;10.77;;
67556;SDS011;54387;53.526;49.300;2022-10-13T14:46:28;28.52;;;12.00;;
67556;SDS011;54387;53.526;49.300;2022-10-13T14:48:59;30.23;;;14.02;;
67556;SDS011;54387;53.526;49.300;2022-10-13T14:51:31;37.03;;;15.25;;
67556;SDS011;54387;53.526;49.300;2022-10-13T14:54:03;27.52;;;11.93;;
67556;SDS011;54387;53.526;49.300;2022-10-13T14:56:37;21.33;;;10.10;;
67556;SDS011;54387;53.526;49.300;2022-10-13T14:59:08;19.27;;;9.88;;
67556;SDS011;54387;53.526;49.300;2022-10-13T15:01:42;17.15;;;8.90;;
67556;SDS011;54387;53.526;49.300;2022-10-13T15:04:14;17.50;;;8.40;;
67556;SDS011;54387;53.526;49.300;2022-10-13T15:06:45;16.65;;;8.25;;
67556;SDS011;54387;53.526;49.300;2022-10-13T15:09:16;18.40;;;10.77;;
67556;SDS011;54387;53.526;49.300;2022-10-13T15:11:48;14.07;;;6.85;;
67556;SDS011;54387;53.526;49.300;2022-10-13T15:14:19;14.57;;;7.47;;
67556;SDS011;54387;53.526;49.300;2022-10-13T15:16:51;20.17;;;9.82;;
67556;SDS011;54387;53.526;49.300;2022-10-13T15:19:23;16.10;;;8.45;;
67556;SDS011;54387;53.526;49.300;2022-10-13T15:21:57;19.55;;;9.00;;
67556;SDS011;54387;53.526;49.300;2022-10-13T15:24:28;23.55;;;10.00;;
67556;SDS011;54387;53.526;49.300;2022-10-13T15:27:00;24.00;;;11.90;;
67556;SDS011;54387;53.526;49.300;2022-10-13T15:29:31;25.17;;;12.57;;
67556;SDS011;54387;53.526;49.300;2022-10-13T15:32:07;23.58;;;11.95;;
67556;SDS011;54387;53.526;49.300;2022-10-13T15:34:40;24.83;;;11.95;;
67556;SDS011;54387;53.526;49.300;2022-10-13T15:37:12;22.60;;;9.93;;
67556;SDS011;54387;53.526;49.300;2022-10-13T15:39:43;25.10;;;10.63;;
67556;SDS011;54387;53.526;49.300;2022-10-13T15:42:15;25.33;;;10.40;;
67556;SDS011;54387;53.526;49.300;2022-10-13T15:44:46;21.13;;;10.85;;
67556;SDS011;54387;53.526;49.300;2022-10-13T15:47:18;25.83;;;12.95;;
67556;SDS011;54387;53.526;49.300;2022-10-13T15:49:49;26.75;;;13.73;;
67556;SDS011;54387;53.526;49.300;2022-10-13T15:52:21;23.02;;;12.07;;
67556;SDS011;54387;53.526;49.300;2022-10-13T15:54:53;22.60;;;10.35;;
67556;SDS011;54387;53.526;49.300;2022-10-13T15:57:25;17.83;;;7.68;;
67556;SDS011;54387;53.526;49.300;2022-10-13T15:59:57;27.23;;;11.93;;
67556;SDS011;54387;53.526;49.300;2022-10-13T16:02:28;18.20;;;8.18;;
67556;SDS011;54387;53.526;49.300;2022-10-13T16:05:00;18.15;;;9.52;;
67556;SDS011;54387;53.526;49.300;2022-10-13T16:07:34;17.23;;;8.75;;
67556;SDS011;54387;53.526;49.300;2022-10-13T16:10:07;18.30;;;7.93;;
67556;SDS011;54387;53.526;49.300;2022-10-13T16:12:40;17.50;;;8.35;;
67556;SDS011;54387;53.526;49.300;2022-10-13T16:15:12;20.55;;;9.63;;
67556;SDS011;54387;53.526;49.300;2022-10-13T16:17:44;19.13;;;9.55;;
67556;SDS011;54387;53.526;49.300;2022-10-13T16:20:16;18.17;;;9.00;;
67556;SDS011;54387;53.526;49.300;2022-10-13T16:22:47;20.58;;;8.95;;
67556;SDS011;54387;53.526;49.300;2022-10-13T16:25:18;17.63;;;8.15;;
67556;SDS011;54387;53.526;49.300;2022-10-13T16:27:50;19.05;;;9.38;;
67556;SDS011;54387;53.526;49.300;2022-10-13T16:30:22;17.58;;;8.93;;
67556;SDS011;54387;53.526;49.300;2022-10-13T16:32:53;19.00;;;9.73;;
67556;SDS011;54387;53.526;49.300;2022-10-13T16:35:25;22.33;;;10.50;;
67556;SDS011;54387;53.526;49.300;2022-10-13T16:37:56;14.07;;;8.05;;
67556;SDS011;54387;53.526;49.300;2022-10-13T16:40:28;15.38;;;8.02;;
67556;SDS011;54387;53.526;49.300;2022-10-13T16:43:00;16.88;;;9.55;;
67556;SDS011;54387;53.526;49.300;2022-10-13T16:45:31;16.35;;;7.43;;
67556;SDS011;54387;53.526;49.300;2022-10-13T16:48:03;16.42;;;7.95;;
67556;SDS011;54387;53.526;49.300;2022-10-13T16:50:36;15.30;;;6.03;;
67556;SDS011;54387;53.526;49.300;2022-10-13T16:53:07;14.40;;;7.88;;
67556;SDS011;54387;53.526;49.300;2022-10-13T16:55:40;13.52;;;6.93;;
67556;SDS011;54387;53.526;49.300;2022-10-13T16:58:12;12.23;;;6.57;;
67556;SDS011;54387;53.526;49.300;2022-10-13T17:00:44;11.23;;;6.18;;
67556;SDS011;54387;53.526;49.300;2022-10-13T17:03:15;11.77;;;6.32;;